Time;durP1;ratioP1;P1;durP2;ratioP2;P2;SDS_P1;SDS_P2;PMS_P1;PMS_P2;Temp;Humidity;BMP_temperature;BMP_pressure;BME280_temperature;BME280_humidity;BME280_pressure;Samples;Min_cycle;Max_cycle;Signal;HPM_P1;HPM_P2
2022/07/06 00:01:38;;;;;;;3.33;2.10;;;21.60;58.10;;;;;;5042893;28;20096;-47
2022/07/06 00:04:04;;;;;;;4.03;2.67;;;21.60;58.20;;;;;;5042494;28;20063;-47
2022/07/06 00:06:30;;;;;;;4.18;2.17;;;21.60;58.20;;;;;;5041743;28;20071;-48
2022/07/06 00:08:56;;;;;;;3.53;2.13;;;21.60;58.50;;;;;;5039995;28;20037;-47
2022/07/06 00:11:22;;;;;;;3.10;2.30;;;21.60;58.60;;;;;;5041664;28;20029;-48
2022/07/06 00:13:47;;;;;;;4.57;2.88;;;21.60;58.90;;;;;;5041675;28;20553;-48
2022/07/06 00:16:13;;;;;;;3.88;2.40;;;21.60;59.00;;;;;;5041333;28;20033;-48
2022/07/06 00:18:39;;;;;;;3.13;2.20;;;21.60;59.10;;;;;;5041502;28;20031;-48
2022/07/06 00:21:05;;;;;;;3.80;2.47;;;21.70;59.00;;;;;;5042107;28;20017;-47
2022/07/06 00:23:31;;;;;;;3.35;2.53;;;21.70;59.30;;;;;;5041463;28;20040;-47
2022/07/06 00:25:57;;;;;;;4.72;3.05;;;21.60;59.40;;;;;;5041094;28;20576;-48
2022/07/06 00:28:22;;;;;;;3.80;2.20;;;21.60;59.60;;;;;;5041857;28;20100;-47
2022/07/06 00:30:48;;;;;;;3.17;2.30;;;21.60;59.80;;;;;;5041710;28;20044;-47
2022/07/06 00:33:13;;;;;;;4.32;2.90;;;21.60;59.90;;;;;;5040869;28;20044;-48
2022/07/06 00:35:39;;;;;;;3.60;2.70;;;21.60;60.20;;;;;;5041888;28;20094;-49
2022/07/06 00:38:05;;;;;;;3.17;2.47;;;21.50;60.40;;;;;;5041230;28;20071;-47
2022/07/06 00:40:30;;;;;;;4.53;2.83;;;21.50;60.40;;;;;;5041946;28;20074;-47
2022/07/06 00:42:56;;;;;;;3.60;2.63;;;21.50;60.50;;;;;;5041165;28;20021;-48
2022/07/06 00:45:22;;;;;;;3.90;2.80;;;21.50;60.60;;;;;;5041964;28;20024;-48
2022/07/06 00:47:48;;;;;;;3.72;2.85;;;21.50;60.70;;;;;;5042017;28;20727;-47
2022/07/06 01:00:21;;;;;;;4.45;3.28;;;21.40;63.70;;;;;;5041113;28;20056;-48
2022/07/06 01:02:47;;;;;;;5.00;3.55;;;21.40;64.00;;;;;;5040713;28;20603;-47
2022/07/06 01:05:14;;;;;;;4.75;3.88;;;21.40;63.80;;;;;;5041463;28;20123;-49
2022/07/06 01:07:42;;;;;;;5.55;4.25;;;21.40;63.80;;;;;;5041475;28;20021;-47
2022/07/06 01:10:10;;;;;;;5.65;4.38;;;21.40;64.50;;;;;;5041495;28;21295;-48
2022/07/06 01:12:38;;;;;;;4.88;4.38;;;21.40;65.60;;;;;;5041322;28;20021;-47
2022/07/06 01:15:05;;;;;;;4.55;3.80;;;21.30;65.10;;;;;;5040670;28;20375;-49
2022/07/06 01:17:32;;;;;;;5.80;3.97;;;21.30;64.80;;;;;;5040954;28;20032;-49
2022/07/06 01:19:57;;;;;;;4.63;4.03;;;21.40;64.80;;;;;;5041582;28;20452;-48
2022/07/06 01:22:23;;;;;;;5.35;4.00;;;21.30;65.10;;;;;;5041575;28;20025;-47
2022/07/06 01:24:49;;;;;;;4.82;4.03;;;21.30;64.90;;;;;;5040686;28;20037;-48
2022/07/06 01:27:15;;;;;;;4.20;3.53;;;21.40;64.70;;;;;;5040957;28;20075;-48
2022/07/06 01:29:40;;;;;;;4.43;3.83;;;21.40;64.30;;;;;;5041468;28;20037;-48
2022/07/06 01:32:06;;;;;;;4.00;3.58;;;21.40;64.50;;;;;;5040834;28;20723;-49
2022/07/06 01:34:32;;;;;;;4.07;3.50;;;21.50;64.30;;;;;;5040745;28;20029;-48
2022/07/06 01:36:58;;;;;;;5.57;4.50;;;21.50;64.30;;;;;;5040570;28;20025;-48
2022/07/06 01:39:24;;;;;;;5.43;4.22;;;21.50;64.50;;;;;;5041228;28;20025;-48
2022/07/06 01:41:49;;;;;;;5.00;3.83;;;21.50;64.50;;;;;;5040909;28;20048;-47
2022/07/06 01:44:15;;;;;;;4.88;4.18;;;21.50;64.50;;;;;;5041332;28;20566;-47
2022/07/06 01:46:41;;;;;;;5.88;4.40;;;21.50;64.60;;;;;;5040971;28;20021;-48
2022/07/06 01:49:06;;;;;;;7.18;4.50;;;21.50;64.90;;;;;;5039010;28;20029;-48
2022/07/06 01:51:32;;;;;;;4.95;4.45;;;21.50;65.00;;;;;;5040955;28;20029;-47
2022/07/06 01:53:58;;;;;;;4.90;4.28;;;21.40;65.20;;;;;;5038927;28;20021;-48
2022/07/06 01:56:24;;;;;;;5.28;4.20;;;21.40;65.00;;;;;;5040036;28;20036;-48
2022/07/06 01:58:50;;;;;;;4.65;4.15;;;21.40;65.90;;;;;;5040729;28;20022;-47
2022/07/06 02:01:18;;;;;;;4.72;4.22;;;21.40;65.10;;;;;;5040964;28;20028;-47
2022/07/06 02:03:44;;;;;;;4.88;3.97;;;21.40;64.70;;;;;;5040039;28;20647;-47
2022/07/06 02:06:11;;;;;;;5.15;4.13;;;21.40;64.80;;;;;;5039674;28;20027;-47
2022/07/06 02:08:39;;;;;;;5.55;4.47;;;21.40;64.90;;;;;;5039678;28;20064;-48
2022/07/06 02:11:06;;;;;;;5.45;4.20;;;21.40;65.20;;;;;;5040207;28;20032;-48
2022/07/06 02:13:33;;;;;;;4.78;4.13;;;21.50;65.00;;;;;;5041289;28;20036;-47
2022/07/06 02:15:58;;;;;;;6.00;4.93;;;21.40;64.90;;;;;;5040708;28;20035;-48
2022/07/06 02:18:24;;;;;;;5.03;4.10;;;21.40;65.00;;;;;;5039921;28;20112;-48
2022/07/06 02:20:49;;;;;;;5.28;4.07;;;21.50;65.00;;;;;;5040959;28;20041;-48
2022/07/06 02:23:15;;;;;;;4.55;4.10;;;21.50;64.80;;;;;;5041332;28;20079;-48
2022/07/06 02:25:41;;;;;;;4.93;4.43;;;21.50;65.00;;;;;;5040541;28;20617;-47
2022/07/06 02:28:07;;;;;;;5.07;4.00;;;21.50;64.70;;;;;;5041098;28;20029;-47
2022/07/06 02:30:32;;;;;;;5.30;4.00;;;21.50;64.50;;;;;;5040512;28;20120;-47
2022/07/06 02:32:58;;;;;;;4.85;4.30;;;21.50;64.30;;;;;;5073201;28;20060;-47
2022/07/06 02:35:24;;;;;;;4.43;3.80;;;21.50;64.30;;;;;;5040445;28;20029;-47
2022/07/06 02:37:50;;;;;;;5.88;4.20;;;21.50;64.00;;;;;;5041010;28;20032;-47
2022/07/06 02:40:15;;;;;;;4.18;3.35;;;21.50;63.60;;;;;;5043678;28;20037;-48
2022/07/06 02:42:41;;;;;;;4.55;4.05;;;21.50;63.50;;;;;;5040334;28;20028;-50
2022/07/06 02:45:08;;;;;;;4.63;3.90;;;21.50;63.50;;;;;;5040449;28;20037;-48
2022/07/06 02:47:33;;;;;;;4.45;4.03;;;21.50;63.40;;;;;;5044212;28;20087;-46
2022/07/06 02:49:59;;;;;;;4.68;4.05;;;21.50;63.30;;;;;;5043409;28;20033;-47
2022/07/06 02:52:25;;;;;;;5.20;3.95;;;21.50;63.30;;;;;;5044266;28;20039;-47
2022/07/06 02:54:51;;;;;;;6.38;4.10;;;21.50;63.30;;;;;;5043096;28;20025;-48
2022/07/06 02:57:17;;;;;;;7.22;4.85;;;21.50;63.20;;;;;;5043550;28;20048;-47
2022/07/06 02:59:43;;;;;;;5.93;4.60;;;21.50;63.30;;;;;;5043929;28;20484;-49
2022/07/06 03:02:09;;;;;;;4.60;4.10;;;21.50;63.10;;;;;;5043961;28;20041;-47
2022/07/06 03:04:35;;;;;;;6.72;4.90;;;21.50;63.10;;;;;;5043416;28;20044;-48
2022/07/06 03:07:01;;;;;;;5.95;4.63;;;21.50;63.10;;;;;;5042621;28;20041;-48
2022/07/06 03:09:27;;;;;;;4.60;4.00;;;21.50;63.00;;;;;;5043658;28;20047;-48
2022/07/06 03:11:52;;;;;;;4.93;4.28;;;21.50;62.90;;;;;;5043394;28;20025;-47
2022/07/06 03:14:19;;;;;;;6.30;4.47;;;21.50;62.90;;;;;;5042447;28;20308;-47
2022/07/06 03:16:45;;;;;;;4.70;3.65;;;21.50;62.70;;;;;;5042087;28;20443;-46
2022/07/06 03:19:10;;;;;;;5.88;3.83;;;21.50;62.80;;;;;;5043070;28;20037;-47
2022/07/06 03:21:36;;;;;;;5.32;3.70;;;21.50;62.80;;;;;;5043733;28;20025;-48
2022/07/06 03:24:01;;;;;;;5.22;3.88;;;21.50;62.60;;;;;;5043503;28;20032;-48
2022/07/06 03:26:27;;;;;;;5.05;3.45;;;21.50;62.70;;;;;;5042896;28;20071;-47
2022/07/06 03:28:53;;;;;;;5.20;3.42;;;21.50;62.70;;;;;;5043747;28;20041;-47
2022/07/06 03:31:19;;;;;;;5.10;3.92;;;21.50;62.80;;;;;;5042882;28;20031;-48
2022/07/06 03:33:45;;;;;;;6.80;3.85;;;21.50;63.50;;;;;;5042826;28;20032;-47
2022/07/06 03:36:10;;;;;;;6.38;3.40;;;21.40;62.50;;;;;;5042673;28;20024;-48
2022/07/06 03:38:36;;;;;;;4.22;3.42;;;21.40;62.40;;;;;;5043396;28;20017;-47
2022/07/06 03:41:02;;;;;;;5.03;3.55;;;21.40;62.50;;;;;;5043082;28;20493;-48
2022/07/06 03:43:28;;;;;;;4.40;3.55;;;21.40;62.50;;;;;;5042572;28;20017;-48
2022/07/06 03:45:54;;;;;;;5.90;3.90;;;21.40;62.50;;;;;;5042147;28;20037;-47
2022/07/06 03:48:19;;;;;;;5.40;3.35;;;21.40;62.70;;;;;;5042359;28;20036;-48
2022/07/06 03:50:45;;;;;;;4.60;3.50;;;21.40;62.70;;;;;;5042903;28;20037;-47
2022/07/06 03:53:11;;;;;;;4.57;3.80;;;21.40;62.60;;;;;;5043530;28;20028;-48
2022/07/06 03:55:36;;;;;;;3.95;3.53;;;21.40;62.70;;;;;;5041963;28;20017;-48
2022/07/06 03:58:02;;;;;;;5.63;3.50;;;21.40;62.70;;;;;;5042822;28;20029;-47
2022/07/06 04:00:28;;;;;;;5.60;3.22;;;21.40;62.80;;;;;;5041718;28;20021;-48
2022/07/06 04:02:53;;;;;;;5.40;3.67;;;21.40;62.80;;;;;;5042899;28;20073;-46
2022/07/06 04:05:22;;;;;;;4.35;3.42;;;21.40;62.40;;;;;;5042667;28;20033;-49
2022/07/06 04:07:48;;;;;;;5.13;3.35;;;21.40;62.50;;;;;;5038381;28;20025;-46
2022/07/06 04:10:15;;;;;;;4.18;3.50;;;21.40;62.60;;;;;;5042998;28;20037;-46
2022/07/06 04:12:42;;;;;;;4.15;3.65;;;21.40;63.30;;;;;;5042172;28;20437;-47
2022/07/06 04:15:08;;;;;;;6.05;3.72;;;21.40;62.50;;;;;;5041535;28;20698;-48
2022/07/06 04:17:51;;;;;;;5.78;3.85;;;21.50;62.70;;;;;;5040991;28;20396;-48
2022/07/06 04:20:17;;;;;;;4.55;3.42;;;21.40;62.50;;;;;;5039387;28;20014;-47
2022/07/06 04:22:43;;;;;;;4.50;3.85;;;21.40;62.70;;;;;;5042083;28;20029;-48
2022/07/06 04:25:09;;;;;;;5.80;4.35;;;21.40;62.70;;;;;;5041050;28;20064;-49
2022/07/06 04:27:35;;;;;;;5.70;4.10;;;21.40;62.70;;;;;;5040817;28;20029;-47
2022/07/06 04:30:02;;;;;;;5.80;4.07;;;21.40;62.80;;;;;;5039934;28;20037;-48
2022/07/06 04:32:27;;;;;;;4.95;3.78;;;21.40;62.80;;;;;;5040388;28;20128;-49
2022/07/06 04:34:53;;;;;;;5.35;3.80;;;21.40;62.90;;;;;;5038388;28;20441;-47
2022/07/06 04:37:19;;;;;;;5.35;4.53;;;21.40;63.00;;;;;;5073197;28;20083;-47
2022/07/06 04:39:44;;;;;;;5.03;4.00;;;21.40;63.10;;;;;;5040823;28;20487;-51
2022/07/06 04:42:10;;;;;;;5.95;3.80;;;21.40;63.30;;;;;;5040752;28;20094;-47
2022/07/06 04:44:35;;;;;;;7.32;4.15;;;21.40;63.30;;;;;;5041147;28;20689;-48
2022/07/06 04:47:01;;;;;;;17.65;8.73;;;21.40;63.10;;;;;;5040508;28;20738;-48
2022/07/06 04:49:27;;;;;;;12.20;6.90;;;21.50;73.50;;;;;;5040763;28;20051;-47
2022/07/06 04:51:52;;;;;;;11.13;5.57;;;21.50;71.60;;;;;;5038624;28;20025;-49
2022/07/06 04:54:18;;;;;;;9.00;5.82;;;21.60;71.30;;;;;;5040180;28;20037;-48
2022/07/06 04:56:44;;;;;;;8.52;5.35;;;21.60;69.60;;;;;;5039887;28;20021;-48
2022/07/06 04:59:09;;;;;;;8.40;4.82;;;21.60;68.80;;;;;;5040471;28;20029;-49
2022/07/06 05:01:35;;;;;;;6.68;4.90;;;21.70;68.60;;;;;;5039546;28;20025;-48
2022/07/06 05:04:01;;;;;;;6.90;4.60;;;21.70;68.80;;;;;;5034239;28;20060;-47
2022/07/06 05:06:26;;;;;;;7.70;3.88;;;21.70;67.90;;;;;;5039450;28;20025;-50
2022/07/06 05:08:52;;;;;;;6.07;3.20;;;21.70;65.10;;;;;;5040251;28;20056;-48
2022/07/06 05:11:18;;;;;;;5.47;3.22;;;21.70;64.70;;;;;;5039668;28;20021;-49
2022/07/06 05:13:43;;;;;;;4.55;3.00;;;21.70;64.70;;;;;;5040500;28;20712;-50
2022/07/06 05:16:09;;;;;;;5.28;3.13;;;21.70;64.00;;;;;;5040153;28;20440;-48
2022/07/06 05:18:35;;;;;;;4.55;3.10;;;21.70;63.60;;;;;;5040483;28;20054;-47
2022/07/06 05:21:00;;;;;;;6.10;2.90;;;21.60;62.20;;;;;;5040751;28;20028;-48
2022/07/06 05:23:28;;;;;;;4.30;2.70;;;21.60;62.50;;;;;;5035074;28;20036;-48
2022/07/06 05:25:53;;;;;;;3.42;2.35;;;21.60;62.70;;;;;;5038993;28;20061;-48
2022/07/06 05:28:19;;;;;;;4.15;2.50;;;21.60;62.00;;;;;;5039815;28;20057;-49
2022/07/06 05:30:44;;;;;;;4.45;3.00;;;21.60;62.50;;;;;;5039917;28;20610;-48
2022/07/06 05:33:10;;;;;;;7.38;2.50;;;21.60;63.00;;;;;;5040368;28;20040;-49
2022/07/06 05:35:36;;;;;;;4.10;2.80;;;21.60;62.40;;;;;;5039970;28;20040;-47
2022/07/06 05:38:01;;;;;;;3.75;2.70;;;21.60;62.00;;;;;;5039899;28;20775;-47
2022/07/06 05:40:27;;;;;;;6.53;2.72;;;21.60;62.00;;;;;;5039219;28;20081;-49
2022/07/06 05:42:53;;;;;;;6.25;2.95;;;21.60;62.30;;;;;;5040625;28;20025;-47
2022/07/06 05:45:18;;;;;;;3.60;2.25;;;21.70;62.80;;;;;;5040826;28;20091;-48
2022/07/06 05:50:29;;;;;;;3.25;2.13;;;21.70;62.50;;;;;;5041862;28;20039;-48
2022/07/06 05:53:03;;;;;;;4.15;2.60;;;21.80;61.90;;;;;;5057827;28;20024;-48
2022/07/06 05:55:29;;;;;;;3.60;2.50;;;21.80;62.10;;;;;;5055778;28;20032;-49
2022/07/06 05:57:55;;;;;;;3.95;2.40;;;21.90;61.90;;;;;;5042025;28;20048;-48
2022/07/06 06:00:22;;;;;;;4.78;2.53;;;22.00;61.70;;;;;;5042332;28;20051;-48
2022/07/06 06:02:48;;;;;;;3.85;2.88;;;22.00;61.60;;;;;;5041619;28;20607;-47
2022/07/06 06:05:15;;;;;;;3.55;2.42;;;22.00;61.50;;;;;;5057911;28;20025;-48
2022/07/06 06:07:41;;;;;;;3.55;2.58;;;22.10;61.50;;;;;;5061350;28;20086;-48
2022/07/06 06:10:08;;;;;;;5.10;2.88;;;22.10;61.00;;;;;;5061765;28;20399;-47
2022/07/06 06:12:34;;;;;;;4.47;2.30;;;22.20;61.90;;;;;;5054372;28;20021;-49
2022/07/06 06:15:00;;;;;;;3.50;2.40;;;22.20;60.90;;;;;;5043163;28;20025;-49
2022/07/06 06:17:26;;;;;;;3.70;2.15;;;22.20;60.40;;;;;;5044870;28;20025;-48
2022/07/06 06:19:52;;;;;;;3.30;2.33;;;22.30;61.20;;;;;;5044088;28;20028;-48
2022/07/06 06:22:18;;;;;;;3.30;2.35;;;22.40;61.00;;;;;;5044462;28;20044;-48
2022/07/06 06:24:43;;;;;;;3.53;2.35;;;22.40;60.70;;;;;;5044510;28;20052;-48
2022/07/06 06:27:09;;;;;;;4.35;2.17;;;22.40;60.70;;;;;;5044477;28;20032;-48
2022/07/06 06:29:35;;;;;;;3.40;2.33;;;22.50;60.70;;;;;;5043126;28;20671;-47
2022/07/06 06:32:00;;;;;;;5.10;2.40;;;22.60;60.40;;;;;;5044478;28;20765;-48
2022/07/06 06:34:26;;;;;;;4.53;2.40;;;22.60;59.70;;;;;;5042035;28;20085;-47
2022/07/06 06:36:52;;;;;;;3.83;2.67;;;22.60;59.70;;;;;;5043767;28;20491;-47
2022/07/06 06:39:18;;;;;;;3.70;2.40;;;22.60;59.80;;;;;;5043717;28;20021;-46
2022/07/06 06:41:43;;;;;;;4.20;2.38;;;22.70;60.30;;;;;;5044516;28;20188;-47
2022/07/06 06:44:09;;;;;;;3.78;2.67;;;22.70;60.40;;;;;;5044018;28;20104;-47
2022/07/06 06:46:34;;;;;;;3.75;2.30;;;22.80;60.10;;;;;;5044222;28;20033;-47
2022/07/06 06:49:01;;;;;;;3.00;2.03;;;22.80;59.80;;;;;;5045323;28;20032;-47
2022/07/06 06:51:26;;;;;;;4.05;2.20;;;22.90;59.70;;;;;;5045438;28;20098;-47
2022/07/06 06:53:52;;;;;;;3.42;2.00;;;22.90;59.50;;;;;;5045641;28;20041;-47
2022/07/06 06:56:17;;;;;;;2.78;1.83;;;22.90;59.30;;;;;;5044119;28;20025;-47
2022/07/06 06:58:43;;;;;;;2.97;1.88;;;23.00;59.20;;;;;;5045041;28;20024;-47
2022/07/06 07:01:09;;;;;;;3.45;2.28;;;23.10;59.20;;;;;;5045351;28;20032;-48
2022/07/06 07:03:35;;;;;;;3.47;1.95;;;23.10;59.00;;;;;;5043716;28;20029;-47
2022/07/06 07:06:01;;;;;;;3.03;1.95;;;23.10;59.00;;;;;;5045168;28;20209;-47
2022/07/06 07:08:26;;;;;;;3.80;2.08;;;23.10;58.70;;;;;;5044561;28;20048;-47
2022/07/06 07:10:52;;;;;;;4.43;2.22;;;23.20;58.70;;;;;;5045599;28;20025;-48
2022/07/06 07:13:18;;;;;;;3.20;2.10;;;23.20;58.60;;;;;;5045285;28;20028;-46
2022/07/06 07:15:43;;;;;;;3.22;2.38;;;23.20;58.60;;;;;;5044689;28;20026;-47
2022/07/06 07:18:09;;;;;;;2.83;1.70;;;23.20;58.50;;;;;;5045161;28;20037;-47
2022/07/06 07:20:35;;;;;;;3.30;2.05;;;23.30;58.40;;;;;;5044806;28;20040;-47
2022/07/06 07:23:00;;;;;;;3.10;1.70;;;23.30;58.40;;;;;;5044883;28;20036;-47
2022/07/06 07:25:27;;;;;;;2.85;1.77;;;23.30;58.20;;;;;;5044510;28;20033;-47
2022/07/06 07:27:53;;;;;;;3.10;1.90;;;23.40;58.20;;;;;;5045026;28;20029;-47
2022/07/06 07:30:20;;;;;;;3.00;1.83;;;23.40;58.10;;;;;;5044712;28;20037;-47
2022/07/06 07:32:46;;;;;;;3.75;1.92;;;23.40;58.00;;;;;;5045132;28;20471;-47
2022/07/06 07:35:12;;;;;;;3.33;2.10;;;23.50;58.00;;;;;;5076333;28;20036;-47
2022/07/06 07:37:37;;;;;;;4.28;2.10;;;23.50;57.90;;;;;;5044361;28;20039;-47
2022/07/06 07:40:05;;;;;;;3.17;1.88;;;23.50;57.80;;;;;;5044890;28;20068;-47
2022/07/06 07:42:31;;;;;;;3.20;1.85;;;23.50;57.80;;;;;;5044735;28;20021;-47
2022/07/06 07:44:57;;;;;;;2.45;1.73;;;23.50;57.80;;;;;;5044391;28;20039;-47
2022/07/06 07:47:22;;;;;;;3.42;1.98;;;23.50;57.70;;;;;;5044706;28;20120;-47
2022/07/06 07:49:48;;;;;;;3.47;1.95;;;23.60;57.70;;;;;;5044118;28;20043;-47
2022/07/06 07:52:15;;;;;;;2.90;1.70;;;23.60;57.60;;;;;;5044180;28;20040;-47
2022/07/06 07:54:40;;;;;;;2.55;1.60;;;23.60;57.60;;;;;;5044489;28;20776;-46
2022/07/06 07:57:06;;;;;;;2.78;1.55;;;23.60;57.50;;;;;;5043377;28;20049;-47
2022/07/06 07:59:32;;;;;;;2.38;1.55;;;23.70;57.60;;;;;;5044123;28;20017;-47
2022/07/06 08:01:57;;;;;;;4.43;1.88;;;23.70;57.50;;;;;;5043632;28;20053;-46
2022/07/06 08:04:23;;;;;;;3.47;2.03;;;23.70;57.50;;;;;;5044304;28;20033;-47
2022/07/06 08:06:49;;;;;;;3.13;1.77;;;23.70;58.10;;;;;;5043937;28;20033;-47
2022/07/06 08:09:16;;;;;;;3.10;1.80;;;23.70;57.40;;;;;;5043937;28;20029;-47
2022/07/06 08:11:42;;;;;;;2.30;1.50;;;23.70;57.50;;;;;;5043830;28;20090;-47
2022/07/06 08:14:08;;;;;;;4.07;2.30;;;23.70;57.30;;;;;;5043533;28;20053;-47
2022/07/06 08:16:34;;;;;;;3.38;1.80;;;23.80;57.30;;;;;;5043814;28;20094;-47
2022/07/06 08:18:59;;;;;;;2.50;1.45;;;23.80;57.20;;;;;;5043547;28;20449;-47
2022/07/06 08:21:25;;;;;;;3.67;2.08;;;23.80;57.30;;;;;;5043501;28;20035;-47
2022/07/06 08:23:52;;;;;;;2.92;1.58;;;23.80;57.10;;;;;;5043852;28;20021;-47
2022/07/06 08:26:17;;;;;;;2.75;1.80;;;23.80;57.10;;;;;;5043511;28;20108;-47
2022/07/06 08:28:44;;;;;;;2.90;1.73;;;23.80;57.10;;;;;;5043790;28;20131;-47
2022/07/06 08:31:10;;;;;;;3.25;1.77;;;23.90;57.20;;;;;;5043445;28;20059;-46
2022/07/06 08:33:35;;;;;;;2.60;1.58;;;23.90;57.30;;;;;;5043449;28;20029;-47
2022/07/06 08:36:01;;;;;;;3.05;1.67;;;23.90;57.20;;;;;;5042029;28;20497;-48
2022/07/06 08:38:27;;;;;;;3.30;1.80;;;23.90;57.20;;;;;;5043384;28;20060;-47
2022/07/06 08:40:54;;;;;;;2.38;1.50;;;23.90;57.20;;;;;;5043477;28;20017;-46
2022/07/06 08:43:19;;;;;;;3.10;1.80;;;23.90;57.10;;;;;;5042937;28;20128;-46
2022/07/06 08:45:48;;;;;;;3.88;1.50;;;23.90;57.10;;;;;;5043327;28;20584;-47
2022/07/06 08:48:14;;;;;;;2.78;1.52;;;23.90;57.10;;;;;;5043063;28;20037;-47
2022/07/06 08:50:40;;;;;;;2.45;1.60;;;24.00;57.10;;;;;;5043955;28;20097;-46
2022/07/06 08:53:06;;;;;;;2.70;1.42;;;24.00;57.00;;;;;;5043128;28;20037;-46
2022/07/06 08:55:32;;;;;;;2.45;1.50;;;24.00;56.90;;;;;;5042152;28;20250;-47
2022/07/06 08:57:58;;;;;;;2.47;1.52;;;24.00;56.90;;;;;;5043294;28;20086;-46
2022/07/06 09:00:25;;;;;;;3.00;1.67;;;24.00;56.90;;;;;;5043246;28;20025;-47
2022/07/06 09:02:53;;;;;;;2.47;1.70;;;24.00;56.80;;;;;;5043144;28;20028;-47
2022/07/06 09:05:21;;;;;;;2.30;1.30;;;24.00;56.80;;;;;;5041874;28;20493;-47
2022/07/06 09:07:49;;;;;;;2.33;1.38;;;24.10;56.90;;;;;;5042693;28;20033;-47
2022/07/06 09:10:18;;;;;;;2.30;1.40;;;24.10;56.90;;;;;;5042879;28;20028;-47
2022/07/06 09:12:44;;;;;;;2.72;1.52;;;24.10;56.80;;;;;;5042905;28;20029;-47
2022/07/06 09:15:09;;;;;;;2.55;1.50;;;24.10;56.80;;;;;;5042606;28;20055;-47
2022/07/06 09:17:42;;;;;;;2.70;1.52;;;24.10;56.70;;;;;;5042420;28;20021;-47
2022/07/06 09:20:09;;;;;;;2.70;1.38;;;24.10;56.70;;;;;;5042576;28;20071;-47
2022/07/06 09:22:35;;;;;;;2.10;1.30;;;24.10;56.60;;;;;;5043228;28;20053;-47
2022/07/06 09:25:10;;;;;;;2.70;1.38;;;24.10;56.60;;;;;;5042570;28;20043;-46
2022/07/06 09:27:45;;;;;;;2.42;1.55;;;24.10;56.60;;;;;;5042236;28;20346;-46
2022/07/06 09:30:11;;;;;;;2.83;1.48;;;24.20;56.60;;;;;;5042834;28;20040;-47
2022/07/06 09:32:49;;;;;;;2.72;1.48;;;24.20;56.50;;;;;;5043219;28;20563;-47
2022/07/06 09:35:26;;;;;;;1.90;1.05;;;24.20;56.50;;;;;;5042296;28;20064;-47
2022/07/06 09:38:12;;;;;;;2.30;1.38;;;24.20;56.50;;;;;;5042605;28;20033;-47
2022/07/06 09:40:43;;;;;;;1.92;1.20;;;24.20;56.40;;;;;;5041600;28;20040;-47
2022/07/06 09:43:20;;;;;;;2.47;1.40;;;24.20;56.30;;;;;;5042923;28;20079;-47
2022/07/06 09:45:49;;;;;;;2.85;1.50;;;24.20;56.30;;;;;;5042063;28;20021;-47
2022/07/06 09:48:18;;;;;;;2.45;1.42;;;24.20;56.30;;;;;;5045169;28;20029;-47
2022/07/06 09:51:02;;;;;;;2.15;1.20;;;24.20;56.20;;;;;;5046619;28;20039;-47
2022/07/06 09:53:28;;;;;;;2.03;1.23;;;24.20;56.30;;;;;;5046788;28;20039;-47
2022/07/06 09:55:57;;;;;;;2.20;1.30;;;24.20;56.10;;;;;;5046155;28;20123;-47
2022/07/06 09:58:24;;;;;;;2.28;1.40;;;24.20;56.20;;;;;;5046383;28;20185;-46
2022/07/06 10:00:51;;;;;;;2.35;1.35;;;24.20;56.20;;;;;;5045739;28;20021;-48
2022/07/06 10:03:17;;;;;;;1.92;1.15;;;24.30;56.30;;;;;;5046274;28;20036;-47
2022/07/06 10:05:49;;;;;;;1.77;1.10;;;24.30;56.30;;;;;;5045986;28;20112;-48
2022/07/06 10:08:16;;;;;;;2.20;1.20;;;24.30;56.20;;;;;;5025776;28;20660;-47
2022/07/06 10:10:44;;;;;;;3.13;1.25;;;24.30;56.10;;;;;;5026329;28;20021;-47
2022/07/06 10:13:10;;;;;;;2.42;1.35;;;24.30;56.10;;;;;;5026200;28;20736;-47
2022/07/06 10:15:38;;;;;;;2.58;1.35;;;24.30;56.10;;;;;;5026137;28;20299;-47
2022/07/06 10:18:06;;;;;;;2.08;1.20;;;24.30;56.10;;;;;;5026383;28;20029;-47
2022/07/06 10:20:36;;;;;;;1.75;1.15;;;24.30;56.10;;;;;;5044049;28;20162;-47
2022/07/06 10:23:03;;;;;;;1.65;1.02;;;24.30;56.10;;;;;;5046307;28;20079;-47
2022/07/06 10:25:29;;;;;;;2.17;1.27;;;24.30;56.10;;;;;;5045724;28;20698;-47
2022/07/06 10:27:55;;;;;;;2.30;1.23;;;24.40;56.00;;;;;;5046070;28;20174;-47
2022/07/06 10:30:24;;;;;;;1.95;1.15;;;24.40;56.00;;;;;;5045968;28;20029;-47
2022/07/06 10:32:50;;;;;;;2.58;1.40;;;24.40;55.90;;;;;;5045356;28;20145;-47
2022/07/06 10:35:19;;;;;;;2.40;1.35;;;24.40;55.90;;;;;;5045252;28;20731;-46
2022/07/06 10:37:46;;;;;;;2.97;1.30;;;24.40;55.90;;;;;;5045770;28;20033;-47
2022/07/06 10:43:00;;;;;;;1.58;1.00;;;24.40;55.80;;;;;;5045296;28;20191;-47
2022/07/06 10:45:29;;;;;;;2.08;1.20;;;24.40;55.80;;;;;;5045240;28;20037;-47
2022/07/06 10:48:15;;;;;;;1.80;0.95;;;24.40;55.80;;;;;;5045583;28;20250;-47
2022/07/06 10:51:04;;;;;;;2.25;1.20;;;24.40;55.90;;;;;;5045417;28;20025;-47
2022/07/06 10:53:35;;;;;;;2.00;1.13;;;24.40;55.80;;;;;;5045640;28;20044;-46
2022/07/06 10:56:03;;;;;;;2.40;1.50;;;24.40;55.80;;;;;;5044099;28;20028;-47
2022/07/06 10:58:46;;;;;;;1.98;1.20;;;24.40;55.70;;;;;;5044752;28;20493;-47
2022/07/06 11:01:13;;;;;;;2.10;1.15;;;24.50;55.90;;;;;;5045184;28;20033;-47
2022/07/06 11:03:57;;;;;;;1.50;0.90;;;24.50;55.80;;;;;;5044131;28;20437;-47
2022/07/06 11:06:24;;;;;;;2.72;1.40;;;24.50;55.90;;;;;;5045082;28;20074;-47
2022/07/06 11:08:59;;;;;;;2.13;1.33;;;24.50;55.80;;;;;;5045382;28;20033;-47
2022/07/06 11:11:29;;;;;;;1.70;1.08;;;24.50;55.70;;;;;;5044966;28;20078;-47
2022/07/06 11:14:04;;;;;;;2.03;1.20;;;24.50;55.70;;;;;;5045431;28;20489;-47
2022/07/06 11:16:50;;;;;;;2.50;1.42;;;24.50;55.70;;;;;;5044667;28;20115;-48
2022/07/06 11:19:20;;;;;;;2.30;1.48;;;24.50;55.70;;;;;;5037327;28;20033;-47
2022/07/06 11:21:57;;;;;;;1.98;1.10;;;24.50;55.60;;;;;;5044820;28;20071;-47
2022/07/06 11:24:25;;;;;;;1.48;0.93;;;24.50;55.60;;;;;;5045236;28;20052;-46
2022/07/06 11:26:52;;;;;;;2.35;1.30;;;24.50;55.50;;;;;;5044657;28;20037;-46
2022/07/06 11:29:23;;;;;;;1.65;1.00;;;24.50;55.50;;;;;;5044767;28;20059;-47
2022/07/06 11:31:52;;;;;;;1.63;1.05;;;24.50;55.50;;;;;;5044962;28;20497;-47
2022/07/06 11:34:28;;;;;;;2.00;1.10;;;24.50;55.50;;;;;;5044627;28;20091;-47
2022/07/06 11:37:05;;;;;;;1.40;1.00;;;24.50;55.50;;;;;;5044785;28;20444;-47
2022/07/06 11:39:32;;;;;;;1.85;1.05;;;24.60;55.50;;;;;;5044878;28;20730;-47
2022/07/06 11:41:59;;;;;;;2.25;1.20;;;24.60;55.50;;;;;;5044727;28;20021;-47
2022/07/06 11:44:25;;;;;;;1.58;1.00;;;24.60;55.50;;;;;;5044795;28;20052;-47
2022/07/06 11:46:50;;;;;;;2.30;1.20;;;24.60;55.50;;;;;;5044022;28;20021;-47
2022/07/06 11:49:17;;;;;;;2.22;1.15;;;24.60;55.50;;;;;;5044244;28;20114;-48
2022/07/06 11:51:44;;;;;;;1.90;1.10;;;24.60;55.30;;;;;;5044273;28;20032;-47
2022/07/06 11:54:20;;;;;;;2.45;1.38;;;24.60;56.10;;;;;;5044409;28;20102;-47
2022/07/06 11:56:52;;;;;;;1.85;0.90;;;24.70;55.60;;;;;;5043587;28;20048;-47
2022/07/06 11:59:29;;;;;;;2.00;1.20;;;24.60;55.40;;;;;;5044331;28;20029;-47
2022/07/06 12:02:01;;;;;;;2.22;1.02;;;24.70;55.50;;;;;;5044045;28;20021;-48
2022/07/06 12:04:28;;;;;;;2.20;1.20;;;24.70;55.50;;;;;;5044140;28;20029;-46
2022/07/06 12:06:54;;;;;;;1.50;0.88;;;24.70;55.60;;;;;;5043747;28;20037;-47
2022/07/06 12:09:20;;;;;;;2.05;1.15;;;24.70;55.40;;;;;;5044412;28;20068;-48
2022/07/06 12:11:46;;;;;;;1.58;1.00;;;24.70;55.40;;;;;;5044370;28;20106;-48
2022/07/06 12:14:20;;;;;;;1.85;1.10;;;24.70;55.50;;;;;;5044417;28;20082;-48
2022/07/06 12:16:50;;;;;;;1.92;1.13;;;24.70;55.40;;;;;;5043537;28;20043;-48
2022/07/06 12:19:16;;;;;;;2.03;1.02;;;24.80;55.40;;;;;;5043593;28;20691;-48
2022/07/06 12:21:47;;;;;;;2.08;1.15;;;24.80;55.30;;;;;;5043957;28;20029;-47
2022/07/06 12:24:32;;;;;;;1.40;0.93;;;24.80;55.20;;;;;;5044008;28;20014;-47
2022/07/06 12:26:58;;;;;;;1.85;1.20;;;24.80;55.30;;;;;;5042779;28;20212;-47
2022/07/06 12:29:24;;;;;;;1.48;0.95;;;24.80;55.20;;;;;;5043724;28;20045;-47
2022/07/06 12:31:55;;;;;;;1.67;1.10;;;24.90;55.30;;;;;;5075838;28;20028;-48
2022/07/06 12:34:26;;;;;;;2.10;1.08;;;24.90;55.30;;;;;;5043396;28;20041;-48
2022/07/06 12:36:59;;;;;;;1.60;1.00;;;24.80;55.10;;;;;;5042401;28;20033;-48
2022/07/06 12:39:28;;;;;;;2.10;1.10;;;24.90;55.20;;;;;;5042369;28;20021;-47
2022/07/06 12:42:00;;;;;;;2.00;1.00;;;24.90;55.10;;;;;;5043338;28;20028;-48
2022/07/06 12:44:26;;;;;;;1.58;0.90;;;24.90;55.10;;;;;;5042625;28;20056;-48
2022/07/06 12:47:06;;;;;;;1.40;0.90;;;24.90;55.10;;;;;;5042650;28;20035;-49
2022/07/06 12:49:33;;;;;;;1.77;0.98;;;24.90;55.10;;;;;;5042320;28;20021;-47
2022/07/06 12:52:09;;;;;;;1.30;0.93;;;24.90;55.00;;;;;;5042726;28;20513;-48
2022/07/06 12:54:43;;;;;;;1.52;1.02;;;24.90;54.90;;;;;;5042663;28;20039;-47
2022/07/06 12:57:17;;;;;;;2.17;1.10;;;24.90;54.90;;;;;;5042639;28;20044;-47
2022/07/06 12:59:54;;;;;;;2.38;1.20;;;24.90;55.00;;;;;;5055319;28;20021;-49
2022/07/06 13:02:25;;;;;;;2.17;1.05;;;24.90;55.30;;;;;;5042744;28;20767;-48